sensor_id;sensor_type;location;lat;lon;timestamp;P1;durP1;ratioP1;P2;durP2;ratioP2
58496;SDS011;44284;51.310;16.904;2023-04-06T00:01:57;49.13;;;28.08;;
58496;SDS011;44284;51.310;16.904;2023-04-06T00:04:23;48.30;;;28.02;;
58496;SDS011;44284;51.310;16.904;2023-04-06T00:06:49;52.05;;;29.27;;
58496;SDS011;44284;51.310;16.904;2023-04-06T00:09:15;48.05;;;28.08;;
58496;SDS011;44284;51.310;16.904;2023-04-06T00:11:41;46.45;;;28.10;;
58496;SDS011;44284;51.310;16.904;2023-04-06T00:14:07;48.22;;;28.05;;
58496;SDS011;44284;51.310;16.904;2023-04-06T00:16:33;51.35;;;28.08;;
58496;SDS011;44284;51.310;16.904;2023-04-06T00:19:00;51.50;;;29.70;;
58496;SDS011;44284;51.310;16.904;2023-04-06T00:21:26;58.40;;;29.77;;
58496;SDS011;44284;51.310;16.904;2023-04-06T00:23:52;52.70;;;30.75;;
58496;SDS011;44284;51.310;16.904;2023-04-06T00:26:18;52.55;;;30.50;;
58496;SDS011;44284;51.310;16.904;2023-04-06T00:28:44;50.08;;;31.83;;
58496;SDS011;44284;51.310;16.904;2023-04-06T00:31:11;50.13;;;31.83;;
58496;SDS011;44284;51.310;16.904;2023-04-06T00:33:37;53.45;;;31.50;;
58496;SDS011;44284;51.310;16.904;2023-04-06T00:36:03;49.83;;;30.23;;
58496;SDS011;44284;51.310;16.904;2023-04-06T00:38:30;51.67;;;29.48;;
58496;SDS011;44284;51.310;16.904;2023-04-06T00:40:56;54.28;;;31.17;;
58496;SDS011;44284;51.310;16.904;2023-04-06T00:43:22;49.67;;;29.17;;
58496;SDS011;44284;51.310;16.904;2023-04-06T00:45:49;47.33;;;28.88;;
58496;SDS011;44284;51.310;16.904;2023-04-06T00:48:15;48.53;;;27.63;;
58496;SDS011;44284;51.310;16.904;2023-04-06T00:50:42;47.55;;;27.48;;
58496;SDS011;44284;51.310;16.904;2023-04-06T00:53:08;48.90;;;28.10;;
58496;SDS011;44284;51.310;16.904;2023-04-06T00:55:34;49.28;;;28.55;;
58496;SDS011;44284;51.310;16.904;2023-04-06T00:58:01;53.70;;;31.02;;
58496;SDS011;44284;51.310;16.904;2023-04-06T01:00:27;54.00;;;30.73;;
58496;SDS011;44284;51.310;16.904;2023-04-06T01:02:53;52.70;;;30.73;;
58496;SDS011;44284;51.310;16.904;2023-04-06T01:05:19;52.40;;;31.52;;
58496;SDS011;44284;51.310;16.904;2023-04-06T01:07:46;62.50;;;32.50;;
58496;SDS011;44284;51.310;16.904;2023-04-06T01:10:21;53.75;;;32.58;;
58496;SDS011;44284;51.310;16.904;2023-04-06T01:12:47;56.25;;;32.95;;
58496;SDS011;44284;51.310;16.904;2023-04-06T01:15:13;56.40;;;32.97;;
58496;SDS011;44284;51.310;16.904;2023-04-06T01:17:40;54.25;;;31.90;;
58496;SDS011;44284;51.310;16.904;2023-04-06T01:20:06;54.88;;;31.65;;
58496;SDS011;44284;51.310;16.904;2023-04-06T01:22:32;49.67;;;32.00;;
58496;SDS011;44284;51.310;16.904;2023-04-06T01:24:58;53.13;;;30.42;;
58496;SDS011;44284;51.310;16.904;2023-04-06T01:27:24;58.33;;;31.00;;
58496;SDS011;44284;51.310;16.904;2023-04-06T01:29:52;51.20;;;29.35;;
58496;SDS011;44284;51.310;16.904;2023-04-06T01:32:18;53.15;;;30.10;;
58496;SDS011;44284;51.310;16.904;2023-04-06T01:34:45;55.88;;;32.30;;
58496;SDS011;44284;51.310;16.904;2023-04-06T01:37:12;51.92;;;31.23;;
58496;SDS011;44284;51.310;16.904;2023-04-06T01:39:38;53.40;;;31.95;;
58496;SDS011;44284;51.310;16.904;2023-04-06T01:42:04;55.88;;;33.10;;
58496;SDS011;44284;51.310;16.904;2023-04-06T01:44:30;55.33;;;32.17;;
58496;SDS011;44284;51.310;16.904;2023-04-06T01:46:56;54.80;;;31.90;;
58496;SDS011;44284;51.310;16.904;2023-04-06T01:49:25;56.58;;;32.20;;
58496;SDS011;44284;51.310;16.904;2023-04-06T01:51:51;53.67;;;30.42;;
58496;SDS011;44284;51.310;16.904;2023-04-06T01:54:19;55.88;;;31.67;;
58496;SDS011;44284;51.310;16.904;2023-04-06T01:56:45;53.88;;;31.48;;
58496;SDS011;44284;51.310;16.904;2023-04-06T01:59:11;52.75;;;31.38;;
58496;SDS011;44284;51.310;16.904;2023-04-06T02:01:37;47.20;;;28.67;;
58496;SDS011;44284;51.310;16.904;2023-04-06T02:04:03;48.95;;;30.30;;
58496;SDS011;44284;51.310;16.904;2023-04-06T02:06:29;52.33;;;29.98;;
58496;SDS011;44284;51.310;16.904;2023-04-06T02:08:56;50.22;;;30.42;;
58496;SDS011;44284;51.310;16.904;2023-04-06T02:11:22;52.30;;;30.17;;
58496;SDS011;44284;51.310;16.904;2023-04-06T02:13:48;52.75;;;28.73;;
58496;SDS011;44284;51.310;16.904;2023-04-06T02:16:14;53.33;;;30.73;;
58496;SDS011;44284;51.310;16.904;2023-04-06T02:18:40;51.75;;;30.70;;
58496;SDS011;44284;51.310;16.904;2023-04-06T02:21:06;55.67;;;29.35;;
58496;SDS011;44284;51.310;16.904;2023-04-06T02:23:33;53.15;;;29.50;;
58496;SDS011;44284;51.310;16.904;2023-04-06T02:25:59;50.85;;;29.60;;
58496;SDS011;44284;51.310;16.904;2023-04-06T02:28:25;50.03;;;30.15;;
58496;SDS011;44284;51.310;16.904;2023-04-06T02:30:51;53.38;;;30.30;;
58496;SDS011;44284;51.310;16.904;2023-04-06T02:33:17;49.60;;;27.90;;
58496;SDS011;44284;51.310;16.904;2023-04-06T02:35:44;49.67;;;29.05;;
58496;SDS011;44284;51.310;16.904;2023-04-06T02:38:10;51.47;;;30.38;;
58496;SDS011;44284;51.310;16.904;2023-04-06T02:40:37;58.35;;;31.60;;
58496;SDS011;44284;51.310;16.904;2023-04-06T02:43:03;56.50;;;33.55;;
58496;SDS011;44284;51.310;16.904;2023-04-06T02:45:29;54.58;;;31.70;;
58496;SDS011;44284;51.310;16.904;2023-04-06T02:47:55;48.03;;;30.23;;
58496;SDS011;44284;51.310;16.904;2023-04-06T02:50:21;52.30;;;29.08;;
58496;SDS011;44284;51.310;16.904;2023-04-06T02:52:47;58.90;;;32.75;;
58496;SDS011;44284;51.310;16.904;2023-04-06T02:55:13;51.95;;;31.27;;
58496;SDS011;44284;51.310;16.904;2023-04-06T02:57:39;57.13;;;32.53;;
58496;SDS011;44284;51.310;16.904;2023-04-06T03:00:05;56.47;;;32.75;;
58496;SDS011;44284;51.310;16.904;2023-04-06T03:02:32;55.08;;;31.52;;
58496;SDS011;44284;51.310;16.904;2023-04-06T03:04:58;57.13;;;32.20;;
58496;SDS011;44284;51.310;16.904;2023-04-06T03:07:24;53.78;;;31.02;;
58496;SDS011;44284;51.310;16.904;2023-04-06T03:09:50;59.58;;;32.50;;
58496;SDS011;44284;51.310;16.904;2023-04-06T03:12:16;60.30;;;33.80;;
58496;SDS011;44284;51.310;16.904;2023-04-06T03:14:42;59.42;;;33.78;;
58496;SDS011;44284;51.310;16.904;2023-04-06T03:17:08;55.63;;;33.45;;
58496;SDS011;44284;51.310;16.904;2023-04-06T03:19:35;56.60;;;34.08;;
58496;SDS011;44284;51.310;16.904;2023-04-06T03:22:01;59.45;;;34.25;;
58496;SDS011;44284;51.310;16.904;2023-04-06T03:24:27;61.15;;;33.95;;
58496;SDS011;44284;51.310;16.904;2023-04-06T03:26:53;56.25;;;32.97;;
58496;SDS011;44284;51.310;16.904;2023-04-06T03:29:20;64.30;;;33.83;;
58496;SDS011;44284;51.310;16.904;2023-04-06T03:31:47;59.85;;;32.85;;
58496;SDS011;44284;51.310;16.904;2023-04-06T03:34:13;55.72;;;32.17;;
58496;SDS011;44284;51.310;16.904;2023-04-06T03:36:39;55.13;;;30.83;;
58496;SDS011;44284;51.310;16.904;2023-04-06T03:39:05;56.85;;;32.60;;
58496;SDS011;44284;51.310;16.904;2023-04-06T03:41:31;53.47;;;31.52;;
58496;SDS011;44284;51.310;16.904;2023-04-06T03:43:57;58.67;;;32.05;;
58496;SDS011;44284;51.310;16.904;2023-04-06T03:46:23;49.20;;;30.98;;
58496;SDS011;44284;51.310;16.904;2023-04-06T03:48:49;53.03;;;31.73;;
58496;SDS011;44284;51.310;16.904;2023-04-06T03:51:15;52.97;;;31.38;;
58496;SDS011;44284;51.310;16.904;2023-04-06T03:53:42;55.40;;;33.10;;
58496;SDS011;44284;51.310;16.904;2023-04-06T03:56:08;63.03;;;33.90;;
58496;SDS011;44284;51.310;16.904;2023-04-06T03:58:34;57.92;;;31.55;;
58496;SDS011;44284;51.310;16.904;2023-04-06T04:01:00;57.53;;;32.75;;
58496;SDS011;44284;51.310;16.904;2023-04-06T04:03:26;61.28;;;33.55;;
58496;SDS011;44284;51.310;16.904;2023-04-06T04:05:52;59.30;;;33.15;;
58496;SDS011;44284;51.310;16.904;2023-04-06T04:08:20;54.25;;;32.25;;
58496;SDS011;44284;51.310;16.904;2023-04-06T04:10:46;55.67;;;30.60;;
58496;SDS011;44284;51.310;16.904;2023-04-06T04:13:12;53.30;;;30.40;;
58496;SDS011;44284;51.310;16.904;2023-04-06T04:15:38;52.33;;;31.48;;
58496;SDS011;44284;51.310;16.904;2023-04-06T04:18:04;55.30;;;32.33;;
58496;SDS011;44284;51.310;16.904;2023-04-06T04:20:30;58.90;;;32.33;;
58496;SDS011;44284;51.310;16.904;2023-04-06T04:22:56;60.28;;;33.40;;
58496;SDS011;44284;51.310;16.904;2023-04-06T04:25:22;58.35;;;32.05;;
58496;SDS011;44284;51.310;16.904;2023-04-06T04:27:49;62.15;;;32.58;;
58496;SDS011;44284;51.310;16.904;2023-04-06T04:30:15;54.60;;;31.88;;
58496;SDS011;44284;51.310;16.904;2023-04-06T04:32:41;59.80;;;32.60;;
58496;SDS011;44284;51.310;16.904;2023-04-06T04:35:07;57.97;;;33.35;;
58496;SDS011;44284;51.310;16.904;2023-04-06T04:37:34;65.90;;;34.42;;
58496;SDS011;44284;51.310;16.904;2023-04-06T04:40:00;55.13;;;32.55;;
58496;SDS011;44284;51.310;16.904;2023-04-06T04:42:26;57.15;;;33.30;;
58496;SDS011;44284;51.310;16.904;2023-04-06T04:44:52;59.45;;;33.03;;
58496;SDS011;44284;51.310;16.904;2023-04-06T04:47:18;58.00;;;34.00;;
58496;SDS011;44284;51.310;16.904;2023-04-06T04:49:44;62.25;;;34.38;;
58496;SDS011;44284;51.310;16.904;2023-04-06T04:52:10;61.28;;;33.55;;
58496;SDS011;44284;51.310;16.904;2023-04-06T04:54:36;61.50;;;33.67;;
58496;SDS011;44284;51.310;16.904;2023-04-06T04:57:02;57.58;;;30.83;;
58496;SDS011;44284;51.310;16.904;2023-04-06T04:59:28;55.67;;;30.98;;
58496;SDS011;44284;51.310;16.904;2023-04-06T05:01:55;61.67;;;33.72;;
58496;SDS011;44284;51.310;16.904;2023-04-06T05:04:21;55.88;;;30.33;;
58496;SDS011;44284;51.310;16.904;2023-04-06T05:06:48;59.97;;;32.90;;
58496;SDS011;44284;51.310;16.904;2023-04-06T05:09:14;52.85;;;29.83;;
58496;SDS011;44284;51.310;16.904;2023-04-06T05:11:40;55.88;;;30.23;;
58496;SDS011;44284;51.310;16.904;2023-04-06T05:14:06;54.78;;;30.48;;
58496;SDS011;44284;51.310;16.904;2023-04-06T05:16:33;52.30;;;30.63;;
58496;SDS011;44284;51.310;16.904;2023-04-06T05:19:00;56.83;;;31.77;;
58496;SDS011;44284;51.310;16.904;2023-04-06T05:21:26;56.47;;;32.60;;
58496;SDS011;44284;51.310;16.904;2023-04-06T05:23:53;67.50;;;36.08;;
58496;SDS011;44284;51.310;16.904;2023-04-06T05:26:19;62.03;;;35.33;;
58496;SDS011;44284;51.310;16.904;2023-04-06T05:28:45;67.07;;;35.28;;
58496;SDS011;44284;51.310;16.904;2023-04-06T05:31:11;61.03;;;33.75;;
58496;SDS011;44284;51.310;16.904;2023-04-06T05:33:37;61.00;;;34.55;;
58496;SDS011;44284;51.310;16.904;2023-04-06T05:36:03;63.42;;;34.88;;
58496;SDS011;44284;51.310;16.904;2023-04-06T05:38:31;63.10;;;36.25;;
58496;SDS011;44284;51.310;16.904;2023-04-06T05:40:58;65.53;;;36.70;;
58496;SDS011;44284;51.310;16.904;2023-04-06T05:43:24;63.28;;;37.03;;
58496;SDS011;44284;51.310;16.904;2023-04-06T05:45:50;75.30;;;41.85;;
58496;SDS011;44284;51.310;16.904;2023-04-06T05:48:16;76.70;;;40.47;;
58496;SDS011;44284;51.310;16.904;2023-04-06T05:50:42;74.70;;;42.25;;
58496;SDS011;44284;51.310;16.904;2023-04-06T05:53:08;77.47;;;41.97;;
58496;SDS011;44284;51.310;16.904;2023-04-06T05:55:34;79.40;;;42.38;;
58496;SDS011;44284;51.310;16.904;2023-04-06T05:58:00;84.72;;;44.50;;
58496;SDS011;44284;51.310;16.904;2023-04-06T06:00:26;78.53;;;41.97;;
58496;SDS011;44284;51.310;16.904;2023-04-06T06:02:52;72.55;;;39.33;;
58496;SDS011;44284;51.310;16.904;2023-04-06T06:05:18;73.03;;;44.35;;
58496;SDS011;44284;51.310;16.904;2023-04-06T06:07:45;70.65;;;40.97;;
58496;SDS011;44284;51.310;16.904;2023-04-06T06:10:11;66.25;;;37.17;;
58496;SDS011;44284;51.310;16.904;2023-04-06T06:12:37;68.80;;;38.13;;
58496;SDS011;44284;51.310;16.904;2023-04-06T06:15:03;66.10;;;38.40;;
58496;SDS011;44284;51.310;16.904;2023-04-06T06:17:29;64.20;;;37.25;;
58496;SDS011;44284;51.310;16.904;2023-04-06T06:19:55;62.95;;;35.42;;
58496;SDS011;44284;51.310;16.904;2023-04-06T06:22:21;54.35;;;31.63;;
58496;SDS011;44284;51.310;16.904;2023-04-06T06:24:47;53.67;;;32.25;;
58496;SDS011;44284;51.310;16.904;2023-04-06T06:27:14;58.65;;;31.98;;
58496;SDS011;44284;51.310;16.904;2023-04-06T06:29:41;58.88;;;32.53;;
58496;SDS011;44284;51.310;16.904;2023-04-06T06:32:07;57.58;;;32.55;;
58496;SDS011;44284;51.310;16.904;2023-04-06T06:34:36;58.95;;;35.00;;
58496;SDS011;44284;51.310;16.904;2023-04-06T06:37:02;85.72;;;52.47;;
58496;SDS011;44284;51.310;16.904;2023-04-06T06:39:28;100.65;;;68.60;;
58496;SDS011;44284;51.310;16.904;2023-04-06T06:41:54;60.35;;;32.22;;
58496;SDS011;44284;51.310;16.904;2023-04-06T06:44:20;58.42;;;35.55;;
58496;SDS011;44284;51.310;16.904;2023-04-06T06:46:46;62.00;;;37.50;;
58496;SDS011;44284;51.310;16.904;2023-04-06T06:49:12;54.58;;;33.88;;
58496;SDS011;44284;51.310;16.904;2023-04-06T06:51:39;113.03;;;51.70;;
58496;SDS011;44284;51.310;16.904;2023-04-06T06:54:05;83.35;;;41.28;;
58496;SDS011;44284;51.310;16.904;2023-04-06T06:56:31;57.10;;;34.17;;
58496;SDS011;44284;51.310;16.904;2023-04-06T06:58:57;60.25;;;34.25;;
58496;SDS011;44284;51.310;16.904;2023-04-06T07:01:24;60.83;;;31.80;;
58496;SDS011;44284;51.310;16.904;2023-04-06T07:03:50;52.70;;;30.70;;
58496;SDS011;44284;51.310;16.904;2023-04-06T07:06:16;52.28;;;30.80;;
58496;SDS011;44284;51.310;16.904;2023-04-06T07:08:42;58.17;;;33.10;;
58496;SDS011;44284;51.310;16.904;2023-04-06T07:11:08;56.47;;;32.60;;
58496;SDS011;44284;51.310;16.904;2023-04-06T07:13:34;55.42;;;32.13;;
58496;SDS011;44284;51.310;16.904;2023-04-06T07:16:00;55.60;;;34.22;;
58496;SDS011;44284;51.310;16.904;2023-04-06T07:18:26;53.17;;;31.65;;
58496;SDS011;44284;51.310;16.904;2023-04-06T07:20:52;57.90;;;33.97;;
58496;SDS011;44284;51.310;16.904;2023-04-06T07:23:18;58.80;;;35.70;;
58496;SDS011;44284;51.310;16.904;2023-04-06T07:25:44;52.40;;;32.95;;
58496;SDS011;44284;51.310;16.904;2023-04-06T07:28:10;50.35;;;31.08;;
58496;SDS011;44284;51.310;16.904;2023-04-06T07:30:37;50.38;;;31.48;;
58496;SDS011;44284;51.310;16.904;2023-04-06T07:33:03;50.63;;;30.92;;
58496;SDS011;44284;51.310;16.904;2023-04-06T07:35:30;51.05;;;32.38;;
58496;SDS011;44284;51.310;16.904;2023-04-06T07:37:57;53.45;;;31.52;;
58496;SDS011;44284;51.310;16.904;2023-04-06T07:40:23;51.22;;;31.80;;
58496;SDS011;44284;51.310;16.904;2023-04-06T07:42:51;56.20;;;33.35;;
58496;SDS011;44284;51.310;16.904;2023-04-06T07:45:17;49.55;;;32.95;;
58496;SDS011;44284;51.310;16.904;2023-04-06T07:47:43;47.53;;;31.60;;
58496;SDS011;44284;51.310;16.904;2023-04-06T07:50:09;53.50;;;34.03;;
58496;SDS011;44284;51.310;16.904;2023-04-06T07:52:35;55.63;;;36.50;;
58496;SDS011;44284;51.310;16.904;2023-04-06T07:55:01;51.05;;;33.63;;
58496;SDS011;44284;51.310;16.904;2023-04-06T07:57:27;55.10;;;33.28;;
58496;SDS011;44284;51.310;16.904;2023-04-06T07:59:53;58.63;;;37.58;;
58496;SDS011;44284;51.310;16.904;2023-04-06T08:02:19;62.67;;;37.97;;
58496;SDS011;44284;51.310;16.904;2023-04-06T08:04:45;58.22;;;34.15;;
58496;SDS011;44284;51.310;16.904;2023-04-06T08:07:12;61.30;;;40.30;;
58496;SDS011;44284;51.310;16.904;2023-04-06T08:09:38;46.42;;;28.80;;
58496;SDS011;44284;51.310;16.904;2023-04-06T08:12:04;41.17;;;27.13;;
58496;SDS011;44284;51.310;16.904;2023-04-06T08:14:30;47.78;;;28.85;;
58496;SDS011;44284;51.310;16.904;2023-04-06T08:16:56;49.08;;;29.00;;
58496;SDS011;44284;51.310;16.904;2023-04-06T08:19:22;50.25;;;32.13;;
58496;SDS011;44284;51.310;16.904;2023-04-06T08:21:48;47.42;;;30.35;;
58496;SDS011;44284;51.310;16.904;2023-04-06T08:24:16;42.30;;;27.90;;
58496;SDS011;44284;51.310;16.904;2023-04-06T08:26:42;47.22;;;27.85;;
58496;SDS011;44284;51.310;16.904;2023-04-06T08:29:08;39.47;;;24.85;;
58496;SDS011;44284;51.310;16.904;2023-04-06T08:31:34;31.40;;;20.05;;
58496;SDS011;44284;51.310;16.904;2023-04-06T08:34:01;37.83;;;24.45;;
58496;SDS011;44284;51.310;16.904;2023-04-06T08:36:27;31.27;;;20.10;;
58496;SDS011;44284;51.310;16.904;2023-04-06T08:38:53;25.40;;;16.98;;
58496;SDS011;44284;51.310;16.904;2023-04-06T08:41:19;18.38;;;11.00;;
58496;SDS011;44284;51.310;16.904;2023-04-06T08:43:49;19.15;;;11.82;;
58496;SDS011;44284;51.310;16.904;2023-04-06T08:46:18;19.63;;;12.52;;
58496;SDS011;44284;51.310;16.904;2023-04-06T08:48:44;21.38;;;14.20;;
58496;SDS011;44284;51.310;16.904;2023-04-06T08:51:11;23.83;;;14.63;;
58496;SDS011;44284;51.310;16.904;2023-04-06T08:53:38;20.58;;;13.80;;
58496;SDS011;44284;51.310;16.904;2023-04-06T08:56:04;21.13;;;12.98;;
58496;SDS011;44284;51.310;16.904;2023-04-06T08:58:32;26.45;;;19.77;;
58496;SDS011;44284;51.310;16.904;2023-04-06T09:00:59;24.50;;;19.85;;
58496;SDS011;44284;51.310;16.904;2023-04-06T09:03:26;20.70;;;13.48;;
58496;SDS011;44284;51.310;16.904;2023-04-06T09:05:53;19.60;;;12.13;;
58496;SDS011;44284;51.310;16.904;2023-04-06T09:08:19;20.52;;;13.32;;
58496;SDS011;44284;51.310;16.904;2023-04-06T09:10:45;25.10;;;20.55;;
58496;SDS011;44284;51.310;16.904;2023-04-06T09:13:12;27.35;;;19.90;;
58496;SDS011;44284;51.310;16.904;2023-04-06T09:15:38;20.48;;;15.35;;
58496;SDS011;44284;51.310;16.904;2023-04-06T09:18:04;23.20;;;14.50;;
58496;SDS011;44284;51.310;16.904;2023-04-06T09:20:30;19.38;;;13.23;;
58496;SDS011;44284;51.310;16.904;2023-04-06T09:22:56;18.00;;;12.73;;
58496;SDS011;44284;51.310;16.904;2023-04-06T09:25:23;19.05;;;11.68;;
58496;SDS011;44284;51.310;16.904;2023-04-06T09:28:01;17.98;;;13.70;;
58496;SDS011;44284;51.310;16.904;2023-04-06T09:30:27;16.55;;;11.65;;
58496;SDS011;44284;51.310;16.904;2023-04-06T09:32:57;18.92;;;12.02;;
58496;SDS011;44284;51.310;16.904;2023-04-06T09:35:24;18.33;;;12.27;;
58496;SDS011;44284;51.310;16.904;2023-04-06T09:37:55;19.92;;;12.98;;
58496;SDS011;44284;51.310;16.904;2023-04-06T09:40:21;17.08;;;10.98;;
58496;SDS011;44284;51.310;16.904;2023-04-06T09:42:50;16.30;;;11.63;;
58496;SDS011;44284;51.310;16.904;2023-04-06T09:45:18;16.65;;;11.75;;
58496;SDS011;44284;51.310;16.904;2023-04-06T09:47:44;16.60;;;11.65;;
58496;SDS011;44284;51.310;16.904;2023-04-06T09:50:12;19.80;;;11.10;;
58496;SDS011;44284;51.310;16.904;2023-04-06T09:55:04;20.00;;;12.35;;
58496;SDS011;44284;51.310;16.904;2023-04-06T09:58:15;15.63;;;11.23;;
58496;SDS011;44284;51.310;16.904;2023-04-06T10:00:22;21.05;;;13.23;;
58496;SDS011;44284;51.310;16.904;2023-04-06T10:07:44;18.50;;;13.45;;
58496;SDS011;44284;51.310;16.904;2023-04-06T10:10:10;22.15;;;15.55;;
58496;SDS011;44284;51.310;16.904;2023-04-06T10:12:38;20.08;;;13.70;;
58496;SDS011;44284;51.310;16.904;2023-04-06T10:15:05;16.90;;;11.45;;
58496;SDS011;44284;51.310;16.904;2023-04-06T10:17:31;16.88;;;9.65;;
58496;SDS011;44284;51.310;16.904;2023-04-06T10:21:00;11.85;;;8.68;;
58496;SDS011;44284;51.310;16.904;2023-04-06T10:25:28;14.60;;;9.88;;
58496;SDS011;44284;51.310;16.904;2023-04-06T10:28:07;16.15;;;10.65;;
58496;SDS011;44284;51.310;16.904;2023-04-06T10:30:34;15.48;;;11.10;;
58496;SDS011;44284;51.310;16.904;2023-04-06T10:33:00;18.45;;;12.80;;
58496;SDS011;44284;51.310;16.904;2023-04-06T10:35:36;18.38;;;14.60;;
58496;SDS011;44284;51.310;16.904;2023-04-06T10:38:05;16.55;;;11.93;;
58496;SDS011;44284;51.310;16.904;2023-04-06T10:40:32;19.30;;;15.30;;
58496;SDS011;44284;51.310;16.904;2023-04-06T10:43:07;16.58;;;11.07;;
58496;SDS011;44284;51.310;16.904;2023-04-06T10:45:34;14.75;;;10.52;;
58496;SDS011;44284;51.310;16.904;2023-04-06T10:48:00;16.10;;;10.80;;
58496;SDS011;44284;51.310;16.904;2023-04-06T10:50:26;13.38;;;10.23;;
58496;SDS011;44284;51.310;16.904;2023-04-06T10:53:00;15.85;;;10.95;;
58496;SDS011;44284;51.310;16.904;2023-04-06T10:55:27;14.65;;;10.43;;
58496;SDS011;44284;51.310;16.904;2023-04-06T10:57:53;15.63;;;11.48;;
58496;SDS011;44284;51.310;16.904;2023-04-06T11:00:19;17.52;;;11.35;;
58496;SDS011;44284;51.310;16.904;2023-04-06T11:02:46;15.13;;;10.70;;
58496;SDS011;44284;51.310;16.904;2023-04-06T11:05:13;18.27;;;11.60;;
58496;SDS011;44284;51.310;16.904;2023-04-06T11:07:40;17.48;;;12.15;;
58496;SDS011;44284;51.310;16.904;2023-04-06T11:10:07;19.27;;;13.43;;
58496;SDS011;44284;51.310;16.904;2023-04-06T11:12:33;13.98;;;11.07;;
58496;SDS011;44284;51.310;16.904;2023-04-06T11:15:02;15.30;;;11.50;;
58496;SDS011;44284;51.310;16.904;2023-04-06T11:17:35;17.48;;;12.07;;
58496;SDS011;44284;51.310;16.904;2023-04-06T11:20:01;19.75;;;12.15;;
58496;SDS011;44284;51.310;16.904;2023-04-06T11:22:28;14.65;;;11.50;;
58496;SDS011;44284;51.310;16.904;2023-04-06T11:25:06;16.88;;;11.30;;
58496;SDS011;44284;51.310;16.904;2023-04-06T11:27:33;16.60;;;11.07;;
58496;SDS011;44284;51.310;16.904;2023-04-06T11:29:59;18.80;;;12.23;;
58496;SDS011;44284;51.310;16.904;2023-04-06T11:32:26;15.68;;;11.00;;
58496;SDS011;44284;51.310;16.904;2023-04-06T11:34:52;15.27;;;10.68;;
58496;SDS011;44284;51.310;16.904;2023-04-06T11:37:19;16.77;;;11.65;;
58496;SDS011;44284;51.310;16.904;2023-04-06T11:39:49;16.73;;;12.38;;
58496;SDS011;44284;51.310;16.904;2023-04-06T11:42:25;16.45;;;11.65;;
58496;SDS011;44284;51.310;16.904;2023-04-06T11:44:51;18.77;;;13.40;;
58496;SDS011;44284;51.310;16.904;2023-04-06T11:47:19;14.90;;;11.68;;
58496;SDS011;44284;51.310;16.904;2023-04-06T11:49:47;15.57;;;11.18;;
58496;SDS011;44284;51.310;16.904;2023-04-06T11:54:42;16.23;;;12.25;;
58496;SDS011;44284;51.310;16.904;2023-04-06T11:57:08;16.77;;;11.20;;
58496;SDS011;44284;51.310;16.904;2023-04-06T11:59:34;15.68;;;12.38;;
58496;SDS011;44284;51.310;16.904;2023-04-06T12:02:01;14.95;;;11.90;;
58496;SDS011;44284;51.310;16.904;2023-04-06T12:04:28;17.52;;;11.75;;
58496;SDS011;44284;51.310;16.904;2023-04-06T12:06:54;14.77;;;10.85;;
58496;SDS011;44284;51.310;16.904;2023-04-06T12:09:20;15.77;;;11.25;;
58496;SDS011;44284;51.310;16.904;2023-04-06T12:11:46;16.55;;;12.10;;
58496;SDS011;44284;51.310;16.904;2023-04-06T12:14:12;18.23;;;13.43;;
58496;SDS011;44284;51.310;16.904;2023-04-06T12:16:38;15.30;;;11.75;;
58496;SDS011;44284;51.310;16.904;2023-04-06T12:19:05;14.40;;;11.27;;
58496;SDS011;44284;51.310;16.904;2023-04-06T12:21:31;13.95;;;10.98;;
58496;SDS011;44284;51.310;16.904;2023-04-06T12:23:57;17.25;;;12.23;;
58496;SDS011;44284;51.310;16.904;2023-04-06T12:26:24;17.77;;;11.07;;
58496;SDS011;44284;51.310;16.904;2023-04-06T12:28:51;14.57;;;10.75;;
58496;SDS011;44284;51.310;16.904;2023-04-06T12:31:18;18.27;;;13.02;;
58496;SDS011;44284;51.310;16.904;2023-04-06T12:33:50;15.32;;;11.48;;
58496;SDS011;44284;51.310;16.904;2023-04-06T12:36:19;14.85;;;11.70;;
58496;SDS011;44284;51.310;16.904;2023-04-06T12:38:48;14.75;;;11.32;;
58496;SDS011;44284;51.310;16.904;2023-04-06T12:41:15;15.57;;;11.60;;
58496;SDS011;44284;51.310;16.904;2023-04-06T12:43:42;16.42;;;12.27;;
58496;SDS011;44284;51.310;16.904;2023-04-06T12:46:08;15.57;;;11.45;;
58496;SDS011;44284;51.310;16.904;2023-04-06T12:48:35;16.92;;;12.55;;
58496;SDS011;44284;51.310;16.904;2023-04-06T12:51:02;20.08;;;13.90;;
58496;SDS011;44284;51.310;16.904;2023-04-06T12:53:28;20.58;;;13.23;;
58496;SDS011;44284;51.310;16.904;2023-04-06T12:55:54;15.07;;;12.82;;
58496;SDS011;44284;51.310;16.904;2023-04-06T12:58:21;20.02;;;13.88;;
58496;SDS011;44284;51.310;16.904;2023-04-06T13:00:48;15.55;;;12.85;;
58496;SDS011;44284;51.310;16.904;2023-04-06T13:03:15;28.83;;;24.15;;
58496;SDS011;44284;51.310;16.904;2023-04-06T13:05:48;18.17;;;14.32;;
58496;SDS011;44284;51.310;16.904;2023-04-06T13:08:14;18.05;;;13.80;;
58496;SDS011;44284;51.310;16.904;2023-04-06T13:10:47;19.63;;;13.73;;
58496;SDS011;44284;51.310;16.904;2023-04-06T13:13:16;28.00;;;22.83;;
58496;SDS011;44284;51.310;16.904;2023-04-06T13:15:42;18.15;;;13.93;;
58496;SDS011;44284;51.310;16.904;2023-04-06T13:18:09;17.13;;;14.05;;
58496;SDS011;44284;51.310;16.904;2023-04-06T13:20:35;18.17;;;13.00;;
58496;SDS011;44284;51.310;16.904;2023-04-06T13:23:02;17.75;;;12.93;;
58496;SDS011;44284;51.310;16.904;2023-04-06T13:25:28;17.27;;;13.98;;
58496;SDS011;44284;51.310;16.904;2023-04-06T13:27:54;17.13;;;13.32;;
58496;SDS011;44284;51.310;16.904;2023-04-06T13:30:21;15.88;;;12.68;;
58496;SDS011;44284;51.310;16.904;2023-04-06T13:32:47;16.80;;;11.77;;
58496;SDS011;44284;51.310;16.904;2023-04-06T13:35:13;16.25;;;12.00;;
58496;SDS011;44284;51.310;16.904;2023-04-06T13:37:39;17.30;;;12.70;;
58496;SDS011;44284;51.310;16.904;2023-04-06T13:40:05;15.45;;;12.40;;
58496;SDS011;44284;51.310;16.904;2023-04-06T13:42:31;13.93;;;10.60;;
58496;SDS011;44284;51.310;16.904;2023-04-06T13:45:00;15.90;;;12.38;;
58496;SDS011;44284;51.310;16.904;2023-04-06T13:47:26;15.98;;;12.50;;
58496;SDS011;44284;51.310;16.904;2023-04-06T13:49:52;15.85;;;11.45;;
58496;SDS011;44284;51.310;16.904;2023-04-06T13:52:18;15.75;;;11.93;;
58496;SDS011;44284;51.310;16.904;2023-04-06T13:54:45;14.38;;;11.68;;
58496;SDS011;44284;51.310;16.904;2023-04-06T13:57:11;16.85;;;12.10;;
58496;SDS011;44284;51.310;16.904;2023-04-06T13:59:37;15.65;;;11.55;;
58496;SDS011;44284;51.310;16.904;2023-04-06T14:02:05;17.38;;;12.55;;
58496;SDS011;44284;51.310;16.904;2023-04-06T14:04:31;17.48;;;13.60;;
58496;SDS011;44284;51.310;16.904;2023-04-06T14:06:58;19.08;;;13.73;;
58496;SDS011;44284;51.310;16.904;2023-04-06T14:09:24;17.65;;;13.55;;
58496;SDS011;44284;51.310;16.904;2023-04-06T14:11:50;19.50;;;14.20;;
58496;SDS011;44284;51.310;16.904;2023-04-06T14:14:16;18.35;;;12.95;;
58496;SDS011;44284;51.310;16.904;2023-04-06T14:16:42;16.15;;;12.55;;
58496;SDS011;44284;51.310;16.904;2023-04-06T14:19:09;18.33;;;13.57;;